createdAt,value
2022-10-19T00:00:20.332Z,19.50
2022-10-19T00:01:04.009Z,23.90
2022-10-19T00:01:36.858Z,35.58
2022-10-19T00:02:09.118Z,22.33
2022-10-19T00:02:43.822Z,19.60
2022-10-19T00:03:19.408Z,24.02
2022-10-19T00:03:55.907Z,27.70
2022-10-19T00:04:31.146Z,27.15
2022-10-19T00:05:03.276Z,29.60
2022-10-19T00:05:35.463Z,18.30
2022-10-19T00:06:17.579Z,22.23
2022-10-19T00:06:49.707Z,23.38
2022-10-19T00:07:21.849Z,23.08
2022-10-19T00:07:56.491Z,21.73
2022-10-19T00:08:28.542Z,17.25
2022-10-19T00:09:02.999Z,22.98
2022-10-19T00:09:37.693Z,25.20
2022-10-19T00:10:10.364Z,29.63
2022-10-19T00:10:42.544Z,21.33
2022-10-19T00:11:17.222Z,24.15
2022-10-19T00:11:50.878Z,18.40
2022-10-19T00:12:22.958Z,18.75
2022-10-19T00:12:57.757Z,28.42
2022-10-19T00:13:29.848Z,31.88
2022-10-19T00:14:02.288Z,18.38
2022-10-19T00:14:36.983Z,21.77
2022-10-19T00:15:09.894Z,17.27
2022-10-19T00:15:42.332Z,22.33
2022-10-19T00:16:19.051Z,22.35
2022-10-19T00:16:52.911Z,19.15
2022-10-19T00:17:25.080Z,30.98
2022-10-19T00:17:59.710Z,22.02
2022-10-19T00:18:31.787Z,29.45
2022-10-19T00:19:06.293Z,33.53
2022-10-19T00:19:40.938Z,24.75
2022-10-19T00:20:13.451Z,25.98
2022-10-19T00:20:45.522Z,23.48
2022-10-19T00:21:22.982Z,22.42
2022-10-19T00:21:56.438Z,27.77
2022-10-19T00:22:28.729Z,20.52
2022-10-19T00:23:03.378Z,18.73
2022-10-19T00:23:35.737Z,21.40
2022-10-19T00:24:08.761Z,20.60
2022-10-19T00:24:43.439Z,25.20
2022-10-19T00:25:15.773Z,28.10
2022-10-19T00:25:55.458Z,18.20
2022-10-19T00:26:30.207Z,16.83
2022-10-19T00:27:02.328Z,19.23
2022-10-19T00:27:34.567Z,25.30
2022-10-19T00:28:09.250Z,23.33
2022-10-19T00:28:42.378Z,22.63
2022-10-19T00:29:15.766Z,20.10
2022-10-19T00:29:50.663Z,21.65
2022-10-19T00:30:22.797Z,29.15
2022-10-19T00:30:54.972Z,28.60
2022-10-19T00:31:30.059Z,17.65
2022-10-19T00:32:02.130Z,17.85
2022-10-19T00:32:34.509Z,25.83
2022-10-19T00:33:06.794Z,25.83
2022-10-19T00:33:41.656Z,20.77
2022-10-19T00:34:13.800Z,28.70
2022-10-19T00:34:45.942Z,23.20
2022-10-19T00:35:20.750Z,24.15
2022-10-19T00:35:53.161Z,21.85
2022-10-19T00:36:33.009Z,22.52
2022-10-19T00:37:05.090Z,27.02
2022-10-19T00:37:37.172Z,17.27
2022-10-19T00:38:11.885Z,24.17
2022-10-19T00:38:43.989Z,22.60
2022-10-19T00:39:17.872Z,28.20
2022-10-19T00:39:52.666Z,27.92
2022-10-19T00:40:24.758Z,47.83
2022-10-19T00:40:57.197Z,19.45
2022-10-19T00:41:34.347Z,19.30
2022-10-19T00:42:06.678Z,20.90
2022-10-19T00:42:38.835Z,20.42
2022-10-19T00:43:14.240Z,20.92
2022-10-19T00:44:00.361Z,30.30
2022-10-19T00:45:14.106Z,24.42
2022-10-19T00:45:49.162Z,27.83
2022-10-19T00:46:21.839Z,20.38
2022-10-19T00:46:54.280Z,23.13
2022-10-19T00:47:27.027Z,25.92
2022-10-19T00:48:01.701Z,23.45
2022-10-19T00:48:33.864Z,26.17
2022-10-19T00:49:10.883Z,28.58
2022-10-19T00:49:48.178Z,22.40
2022-10-19T00:50:20.555Z,24.90
2022-10-19T00:50:54.590Z,27.08
2022-10-19T00:51:32.941Z,29.27
2022-10-19T00:52:07.983Z,22.55
2022-10-19T00:52:40.274Z,21.80
2022-10-19T00:53:15.246Z,23.90
2022-10-19T00:53:47.572Z,21.05
2022-10-19T00:54:20.305Z,18.23
2022-10-19T00:54:56.601Z,24.80
2022-10-19T00:55:28.901Z,18.50
2022-10-19T00:56:06.146Z,28.08
2022-10-19T00:56:43.778Z,18.98
2022-10-19T00:57:16.381Z,39.00
2022-10-19T00:57:48.560Z,35.50
2022-10-19T00:58:23.394Z,21.77
2022-10-19T00:58:55.943Z,20.60
2022-10-19T00:59:31.847Z,16.55
2022-10-19T01:00:09.883Z,19.85
2022-10-19T01:00:42.035Z,20.48
2022-10-19T01:01:17.883Z,24.35
2022-10-19T01:01:53.176Z,22.77
2022-10-19T01:02:25.295Z,20.75
2022-10-19T01:02:58.941Z,16.20
2022-10-19T01:03:33.751Z,20.58
2022-10-19T01:04:06.192Z,23.15
2022-10-19T01:04:46.213Z,19.48
2022-10-19T01:05:21.703Z,22.98
2022-10-19T01:05:53.944Z,28.08
2022-10-19T01:06:28.853Z,24.33
2022-10-19T01:07:04.728Z,21.15
2022-10-19T01:07:37.290Z,22.92
2022-10-19T01:08:11.474Z,21.13
2022-10-19T01:08:46.429Z,21.77
2022-10-19T01:09:18.597Z,19.15
2022-10-19T01:09:51.098Z,18.48
2022-10-19T01:10:34.267Z,36.17
2022-10-19T01:11:17.277Z,24.60
2022-10-19T01:11:59.642Z,18.85
2022-10-19T01:12:51.301Z,29.88
2022-10-19T01:13:38.374Z,24.85
2022-10-19T01:14:28.846Z,20.35
2022-10-19T01:15:11.251Z,21.00
2022-10-19T01:16:53.767Z,25.15
2022-10-19T01:17:39.861Z,22.27
2022-10-19T01:18:19.298Z,20.67
2022-10-19T01:19:01.095Z,28.30
2022-10-19T01:20:00.550Z,30.70
2022-10-19T01:21:07.817Z,20.90
2022-10-19T01:21:48.347Z,26.48
2022-10-19T01:22:38.263Z,23.15
2022-10-19T01:23:30.964Z,25.13
2022-10-19T01:24:38.453Z,29.08
2022-10-19T01:25:22.327Z,31.13
2022-10-19T01:26:04.586Z,21.40
2022-10-19T01:27:01.963Z,27.17
2022-10-19T01:27:41.340Z,40.33
2022-10-19T01:28:28.722Z,16.80
2022-10-19T01:29:14.329Z,16.25
2022-10-19T01:30:02.041Z,28.58
2022-10-19T01:30:48.078Z,32.47
2022-10-19T01:31:28.033Z,21.90
2022-10-19T01:32:05.203Z,22.75
2022-10-19T01:32:56.018Z,15.90
2022-10-19T01:33:37.663Z,20.92
2022-10-19T01:34:19.491Z,25.73
2022-10-19T01:35:00.144Z,20.15
2022-10-19T01:35:38.409Z,21.70
2022-10-19T01:36:35.659Z,18.23
2022-10-19T01:37:17.070Z,32.08
2022-10-19T01:37:54.060Z,25.48
2022-10-19T01:38:37.583Z,24.92
2022-10-19T01:39:13.591Z,21.15
2022-10-19T01:39:52.701Z,38.20
2022-10-19T01:40:33.767Z,30.63
2022-10-19T01:41:15.030Z,22.90
2022-10-19T01:41:58.288Z,23.67
2022-10-19T01:42:36.162Z,30.52
2022-10-19T01:43:14.978Z,26.02
2022-10-19T01:43:56.822Z,16.92
2022-10-19T01:44:37.074Z,20.27
2022-10-19T01:45:17.389Z,21.25
2022-10-19T01:45:55.363Z,27.70
2022-10-19T01:46:32.489Z,17.35
2022-10-19T01:47:11.177Z,28.02
2022-10-19T01:47:50.510Z,26.55
2022-10-19T01:48:26.265Z,20.75
2022-10-19T01:49:06.052Z,13.25
2022-10-19T01:49:42.395Z,17.52
2022-10-19T01:50:19.347Z,38.42
2022-10-19T01:51:00.659Z,16.38
2022-10-19T01:51:36.280Z,20.58
2022-10-19T01:52:11.251Z,29.80
2022-10-19T01:52:46.735Z,23.02
2022-10-19T01:53:20.670Z,20.50
2022-10-19T01:53:57.519Z,23.10
2022-10-19T01:54:37.055Z,33.88
2022-10-19T01:55:11.937Z,35.58
2022-10-19T01:55:47.978Z,24.35
2022-10-19T01:56:26.817Z,32.75
2022-10-19T01:57:02.048Z,37.17
2022-10-19T01:57:38.941Z,24.00
2022-10-19T01:58:19.269Z,21.42
2022-10-19T01:58:54.252Z,23.60
2022-10-19T01:59:30.082Z,16.58
2022-10-19T02:00:07.614Z,18.08
2022-10-19T02:00:52.827Z,27.10
2022-10-19T02:01:30.495Z,27.30
2022-10-19T02:02:05.584Z,27.17
2022-10-19T02:02:42.822Z,25.45
2022-10-19T02:03:18.605Z,19.98
2022-10-19T02:03:52.306Z,50.75
2022-10-19T02:04:28.657Z,25.90
2022-10-19T02:05:03.368Z,21.77
2022-10-19T02:05:37.176Z,23.48
2022-10-19T02:06:14.490Z,22.98
2022-10-19T02:06:47.176Z,27.77
2022-10-19T02:07:22.977Z,22.55
2022-10-19T02:08:01.563Z,30.08
2022-10-19T02:08:40.684Z,23.23
2022-10-19T02:09:18.234Z,24.58
2022-10-19T02:09:53.264Z,47.25
2022-10-19T02:10:26.558Z,34.53
2022-10-19T02:11:00.119Z,22.65
2022-10-19T02:11:35.971Z,27.35
2022-10-19T02:12:10.734Z,33.67
2022-10-19T02:12:44.177Z,27.80
2022-10-19T02:13:19.958Z,36.17
2022-10-19T02:13:59.298Z,22.58
2022-10-19T02:14:37.631Z,32.13
2022-10-19T02:15:12.194Z,27.38
2022-10-19T02:15:49.587Z,60.70
2022-10-19T02:16:30.276Z,18.85
2022-10-19T02:17:06.290Z,23.98
2022-10-19T02:17:44.328Z,20.95
2022-10-19T02:18:23.535Z,30.33
2022-10-19T02:18:57.824Z,26.52
2022-10-19T02:19:32.637Z,24.55
2022-10-19T02:20:06.125Z,26.40
2022-10-19T02:20:38.212Z,21.23
2022-10-19T02:21:10.676Z,20.83
2022-10-19T02:21:45.403Z,23.70
2022-10-19T02:22:17.494Z,24.08
2022-10-19T02:22:50.246Z,19.38
2022-10-19T02:23:28.565Z,27.75
2022-10-19T02:24:00.730Z,20.33
2022-10-19T02:24:32.958Z,21.80
2022-10-19T02:25:09.534Z,23.23
2022-10-19T02:25:41.678Z,34.88
2022-10-19T02:26:13.848Z,20.13
2022-10-19T02:26:49.121Z,23.70
2022-10-19T02:27:21.829Z,28.77
2022-10-19T02:27:54.017Z,28.45
2022-10-19T02:28:29.302Z,19.77
2022-10-19T02:29:01.762Z,17.80
2022-10-19T02:29:34.898Z,28.88
2022-10-19T02:30:11.407Z,27.30
2022-10-19T02:30:43.636Z,21.17
2022-10-19T02:31:18.365Z,19.08
2022-10-19T02:31:53.053Z,26.23
2022-10-19T02:32:26.390Z,26.67
2022-10-19T02:32:58.499Z,19.40
2022-10-19T02:33:33.768Z,24.48
2022-10-19T02:34:06.442Z,27.92
2022-10-19T02:34:39.754Z,24.60
2022-10-19T02:35:17.366Z,24.83
2022-10-19T02:35:49.907Z,25.92
2022-10-19T02:36:22.355Z,22.90
2022-10-19T02:36:57.395Z,21.10
2022-10-19T02:37:29.815Z,18.83
2022-10-19T02:38:04.147Z,30.55
2022-10-19T02:38:39.111Z,19.02
2022-10-19T02:39:11.380Z,27.52
2022-10-19T02:39:43.471Z,28.42
2022-10-19T02:40:18.334Z,25.83
2022-10-19T02:40:57.708Z,25.23
2022-10-19T02:41:34.950Z,26.02
2022-10-19T02:42:14.838Z,26.23
2022-10-19T02:42:52.771Z,23.48
2022-10-19T02:43:27.406Z,24.90
2022-10-19T02:44:07.910Z,22.55
2022-10-19T02:44:44.550Z,27.73
2022-10-19T02:45:21.902Z,49.90
2022-10-19T02:46:03.131Z,31.17
2022-10-19T02:46:43.630Z,24.90
2022-10-19T02:47:19.309Z,31.67
2022-10-19T02:47:57.615Z,27.02
2022-10-19T02:48:32.400Z,26.70
2022-10-19T02:49:06.956Z,33.22
2022-10-19T02:49:42.218Z,19.95
2022-10-19T02:50:14.599Z,39.50
2022-10-19T02:50:47.875Z,29.77
2022-10-19T02:51:36.926Z,28.52
2022-10-19T02:52:10.807Z,21.63
2022-10-19T02:52:42.946Z,25.92
2022-10-19T02:53:18.026Z,25.55
2022-10-19T02:53:50.123Z,18.42
2022-10-19T02:54:22.381Z,19.85
2022-10-19T02:54:57.014Z,23.38
2022-10-19T02:55:30.206Z,19.35
2022-10-19T02:56:02.342Z,29.35
2022-10-19T02:56:38.181Z,18.25
2022-10-19T02:57:16.586Z,23.40
2022-10-19T02:57:48.654Z,24.52
2022-10-19T02:58:23.756Z,26.63
2022-10-19T02:58:56.186Z,28.63
2022-10-19T02:59:29.239Z,39.83
2022-10-19T03:00:04.049Z,26.50
2022-10-19T03:00:36.389Z,27.38
2022-10-19T03:01:08.568Z,24.98
2022-10-19T03:01:43.235Z,21.98
2022-10-19T03:02:18.746Z,24.55
2022-10-19T03:02:50.857Z,21.13
2022-10-19T03:03:22.935Z,20.60
2022-10-19T03:03:55.087Z,31.60
2022-10-19T03:04:29.814Z,25.20
2022-10-19T03:05:02.019Z,33.20
2022-10-19T03:05:34.118Z,27.90
2022-10-19T03:06:08.761Z,28.55
2022-10-19T03:06:40.878Z,20.45
2022-10-19T03:07:15.983Z,23.55
2022-10-19T03:07:50.650Z,29.67
2022-10-19T03:08:22.706Z,48.63
2022-10-19T03:08:54.793Z,26.45
2022-10-19T03:09:29.599Z,43.05
2022-10-19T03:10:01.845Z,35.30
2022-10-19T03:10:34.099Z,27.20
2022-10-19T03:11:08.896Z,24.20
2022-10-19T03:11:40.962Z,94.30
2022-10-19T03:12:13.689Z,79.18
2022-10-19T03:12:48.354Z,26.23
2022-10-19T03:13:20.435Z,27.73
2022-10-19T03:13:52.659Z,33.22
2022-10-19T03:14:27.315Z,32.03
2022-10-19T03:14:59.385Z,31.67
2022-10-19T03:15:31.529Z,34.70
2022-10-19T03:16:11.657Z,27.83
2022-10-19T03:16:46.319Z,38.33
2022-10-19T03:17:18.566Z,25.13
2022-10-19T03:17:55.658Z,28.30
2022-10-19T03:18:27.727Z,25.05
2022-10-19T03:18:59.795Z,41.88
2022-10-19T03:19:34.571Z,55.55
2022-10-19T03:20:07.991Z,56.45
2022-10-19T03:20:40.082Z,58.00
2022-10-19T03:21:16.355Z,38.13
2022-10-19T03:21:48.450Z,48.67
2022-10-19T03:22:20.545Z,34.55
2022-10-19T03:23:28.371Z,45.30
2022-10-19T03:24:01.298Z,41.67
2022-10-19T03:24:34.128Z,53.72
2022-10-19T03:25:09.958Z,36.20
2022-10-19T03:25:42.014Z,56.38
2022-10-19T03:26:15.880Z,36.42
2022-10-19T03:26:50.539Z,45.55
2022-10-19T03:27:22.601Z,47.65
2022-10-19T03:27:54.663Z,54.22
2022-10-19T03:28:26.788Z,32.60
2022-10-19T03:29:01.602Z,42.30
2022-10-19T03:29:33.718Z,33.88
2022-10-19T03:30:06.758Z,31.15
2022-10-19T03:30:41.413Z,25.77
2022-10-19T03:31:13.551Z,30.98
2022-10-19T03:31:48.197Z,24.83
2022-10-19T03:32:22.865Z,24.95
2022-10-19T03:32:54.955Z,25.38
2022-10-19T03:33:27.138Z,30.30
2022-10-19T03:34:02.202Z,30.00
2022-10-19T03:34:34.299Z,29.17
2022-10-19T03:35:07.794Z,28.42
2022-10-19T03:35:42.418Z,26.08
2022-10-19T03:36:23.970Z,28.80
2022-10-19T03:36:56.760Z,20.27
2022-10-19T03:37:28.838Z,28.52
2022-10-19T03:38:03.534Z,27.17
2022-10-19T03:38:35.703Z,34.42
2022-10-19T03:39:10.596Z,26.52
2022-10-19T03:39:45.313Z,28.67
2022-10-19T03:40:17.491Z,26.15
2022-10-19T03:40:49.626Z,25.33
2022-10-19T03:41:23.129Z,23.88
2022-10-19T03:41:57.794Z,35.40
2022-10-19T03:42:29.974Z,59.90
2022-10-19T03:43:02.038Z,20.85
2022-10-19T03:43:37.034Z,31.38
2022-10-19T03:44:10.701Z,24.60
2022-10-19T03:44:45.402Z,28.70
2022-10-19T03:45:17.476Z,23.20
2022-10-19T03:45:49.539Z,28.38
2022-10-19T03:46:25.073Z,30.23
2022-10-19T03:46:59.739Z,54.92
2022-10-19T03:47:32.119Z,31.88
2022-10-19T03:48:07.616Z,48.60
2022-10-19T03:48:39.746Z,28.30
2022-10-19T03:49:12.206Z,36.72
2022-10-19T03:49:48.479Z,36.80
2022-10-19T03:50:21.314Z,40.35
2022-10-19T03:50:59.042Z,36.92
2022-10-19T03:51:34.517Z,33.53
2022-10-19T03:52:06.601Z,38.15
2022-10-19T03:52:38.675Z,35.03
2022-10-19T03:53:13.318Z,31.77
2022-10-19T03:53:46.663Z,35.20
2022-10-19T03:54:19.930Z,25.02
2022-10-19T03:54:57.077Z,41.45
2022-10-19T03:55:30.558Z,49.53
2022-10-19T03:56:04.918Z,48.85
2022-10-19T03:56:39.586Z,33.58
2022-10-19T03:57:12.647Z,51.00
2022-10-19T03:57:44.748Z,48.45
2022-10-19T03:58:16.841Z,28.73
2022-10-19T03:58:52.781Z,35.28
2022-10-19T03:59:24.972Z,34.10
2022-10-19T03:59:57.135Z,37.28
2022-10-19T04:00:31.839Z,48.38
2022-10-19T04:01:08.653Z,68.25
2022-10-19T04:01:42.819Z,45.28
2022-10-19T04:02:20.073Z,31.75
2022-10-19T04:02:52.137Z,28.20
2022-10-19T04:03:24.250Z,45.08
2022-10-19T04:04:00.186Z,37.03
2022-10-19T04:04:32.366Z,37.55
2022-10-19T04:05:05.397Z,31.88
2022-10-19T04:05:40.064Z,36.78
2022-10-19T04:06:18.216Z,39.58
2022-10-19T04:06:54.006Z,26.25
2022-10-19T04:07:28.716Z,63.15
2022-10-19T04:08:00.848Z,44.65
2022-10-19T04:08:32.981Z,32.17
2022-10-19T04:09:08.889Z,41.45
2022-10-19T04:09:41.084Z,40.28
2022-10-19T04:10:13.206Z,36.17
2022-10-19T04:10:47.939Z,62.13
2022-10-19T04:11:22.592Z,45.00
2022-10-19T04:11:57.328Z,59.65
2022-10-19T04:12:29.460Z,61.35
2022-10-19T04:13:01.546Z,47.13
2022-10-19T04:13:37.895Z,32.35
2022-10-19T04:14:15.962Z,38.45
2022-10-19T04:14:58.011Z,47.58
2022-10-19T04:15:30.268Z,66.43
2022-10-19T04:16:02.344Z,40.05
2022-10-19T04:16:37.543Z,63.20
2022-10-19T04:17:10.738Z,31.15
2022-10-19T04:17:48.520Z,58.58
2022-10-19T04:18:23.358Z,48.35
2022-10-19T04:18:55.929Z,54.03
2022-10-19T04:19:28.053Z,64.78
2022-10-19T04:20:02.752Z,62.75
2022-10-19T04:20:34.966Z,88.75
2022-10-19T04:21:07.450Z,71.65
2022-10-19T04:21:43.867Z,66.85
2022-10-19T04:22:16.133Z,84.10
2022-10-19T04:22:48.185Z,75.05
2022-10-19T04:23:22.831Z,71.05
2022-10-19T04:23:59.987Z,60.00
2022-10-19T04:24:34.641Z,50.78
2022-10-19T04:25:09.700Z,65.28
2022-10-19T04:25:41.916Z,50.65
2022-10-19T04:26:14.010Z,101.47
2022-10-19T04:26:51.049Z,73.32
2022-10-19T04:27:23.158Z,83.53
2022-10-19T04:27:55.252Z,65.70
2022-10-19T04:28:30.286Z,61.55
2022-10-19T04:29:02.513Z,54.58
2022-10-19T04:29:37.425Z,81.00
2022-10-19T04:30:10.644Z,72.75
2022-10-19T04:30:42.756Z,87.97
2022-10-19T04:31:17.620Z,60.95
2022-10-19T04:31:50.787Z,108.25
2022-10-19T04:32:22.883Z,67.50
2022-10-19T04:33:00.217Z,90.28
2022-10-19T04:33:32.697Z,76.68
2022-10-19T04:34:05.346Z,83.35
2022-10-19T04:34:40.238Z,88.70
2022-10-19T04:35:12.464Z,104.63
2022-10-19T04:35:44.572Z,107.03
2022-10-19T04:36:19.271Z,106.18
2022-10-19T04:36:51.353Z,81.60
2022-10-19T04:37:23.462Z,63.78
2022-10-19T04:37:58.097Z,95.00
2022-10-19T04:38:30.945Z,119.63
2022-10-19T04:39:03.343Z,93.32
2022-10-19T04:39:40.850Z,97.32
2022-10-19T04:40:15.046Z,109.15
2022-10-19T04:40:47.397Z,101.75
2022-10-19T04:41:23.935Z,96.20
2022-10-19T04:41:56.007Z,127.30
2022-10-19T04:42:28.113Z,89.80
2022-10-19T04:43:02.739Z,97.55
2022-10-19T04:43:35.608Z,84.18
2022-10-19T04:44:07.889Z,108.70
2022-10-19T04:44:42.557Z,104.35
2022-10-19T04:45:14.877Z,93.78
2022-10-19T04:45:46.944Z,109.82
2022-10-19T04:46:22.763Z,91.60
2022-10-19T04:46:54.830Z,90.85
2022-10-19T04:47:26.922Z,73.68
2022-10-19T04:48:04.410Z,67.22
2022-10-19T04:48:38.129Z,70.00
2022-10-19T04:49:10.452Z,81.70
2022-10-19T04:49:45.328Z,44.38
2022-10-19T04:50:17.630Z,61.15
2022-10-19T04:50:49.909Z,112.30
2022-10-19T04:51:29.942Z,83.63
2022-10-19T04:52:02.107Z,97.47
2022-10-19T04:52:35.347Z,110.93
2022-10-19T04:53:10.072Z,113.05
2022-10-19T04:53:43.266Z,90.43
2022-10-19T04:54:15.436Z,94.57
2022-10-19T04:54:50.194Z,116.97
2022-10-19T04:55:22.274Z,123.30
2022-10-19T04:55:54.467Z,152.15
2022-10-19T04:56:31.039Z,76.63
2022-10-19T04:57:03.999Z,67.07
2022-10-19T04:57:36.506Z,84.50
2022-10-19T04:58:11.644Z,129.30
2022-10-19T04:58:44.385Z,94.35
2022-10-19T04:59:16.449Z,77.00
2022-10-19T04:59:51.095Z,101.80
2022-10-19T05:00:23.170Z,131.10
2022-10-19T05:00:55.473Z,92.20
2022-10-19T05:01:32.482Z,128.45
2022-10-19T05:02:04.631Z,84.25
2022-10-19T05:02:39.307Z,87.20
2022-10-19T05:03:14.626Z,97.10
2022-10-19T05:03:47.345Z,81.85
2022-10-19T05:04:22.007Z,83.07
2022-10-19T05:04:54.077Z,80.38
2022-10-19T05:05:26.910Z,81.30
2022-10-19T05:05:59.383Z,112.45
2022-10-19T05:06:34.851Z,103.93
2022-10-19T05:07:06.925Z,92.47
2022-10-19T05:07:39.102Z,85.45
2022-10-19T05:08:14.286Z,102.72
2022-10-19T05:08:48.431Z,106.97
2022-10-19T05:09:20.557Z,115.63
2022-10-19T05:09:55.297Z,112.03
2022-10-19T05:10:27.467Z,81.68
2022-10-19T05:11:03.177Z,95.68
2022-10-19T05:11:37.870Z,94.15
2022-10-19T05:12:10.000Z,125.60
2022-10-19T05:12:42.090Z,115.80
2022-10-19T05:13:16.721Z,90.45
2022-10-19T05:13:49.116Z,111.00
2022-10-19T05:14:24.070Z,144.60
2022-10-19T05:14:56.182Z,132.35
2022-10-19T05:15:28.445Z,121.03
2022-10-19T05:16:05.015Z,134.75
2022-10-19T05:16:37.159Z,120.78
2022-10-19T05:17:12.846Z,92.75
2022-10-19T05:17:44.922Z,117.57
2022-10-19T05:18:19.586Z,118.93
2022-10-19T05:18:56.820Z,108.53
2022-10-19T05:19:28.951Z,131.48
2022-10-19T05:20:03.630Z,148.02
2022-10-19T05:20:35.727Z,133.82
2022-10-19T05:21:09.530Z,123.55
2022-10-19T05:21:44.205Z,144.05
2022-10-19T05:22:16.359Z,140.52
2022-10-19T05:22:48.551Z,118.47
2022-10-19T05:23:23.276Z,173.55
2022-10-19T05:23:56.660Z,116.03
2022-10-19T05:24:28.741Z,106.28
2022-10-19T05:25:03.407Z,123.03
2022-10-19T05:25:35.532Z,138.05
2022-10-19T05:26:09.968Z,142.73
2022-10-19T05:26:44.626Z,116.30
2022-10-19T05:27:16.782Z,133.63
2022-10-19T05:27:51.565Z,105.57
2022-10-19T05:28:26.298Z,144.63
2022-10-19T05:29:01.952Z,189.77
2022-10-19T05:29:36.793Z,164.02
2022-10-19T05:30:10.021Z,164.20
2022-10-19T05:30:46.638Z,163.30
2022-10-19T05:31:23.675Z,146.27
2022-10-19T05:31:55.765Z,198.40
2022-10-19T05:32:28.219Z,186.52
2022-10-19T05:33:02.882Z,171.45
2022-10-19T05:33:38.642Z,202.23
2022-10-19T05:34:13.373Z,231.38
2022-10-19T05:34:45.474Z,204.73
2022-10-19T05:35:20.088Z,217.18
2022-10-19T05:35:57.112Z,176.73
2022-10-19T05:36:34.506Z,150.57
2022-10-19T05:37:06.653Z,170.02
2022-10-19T05:37:41.363Z,108.32
2022-10-19T05:38:13.485Z,154.35
2022-10-19T05:38:47.171Z,191.77
2022-10-19T05:39:21.915Z,163.43
2022-10-19T05:39:54.687Z,166.57
2022-10-19T05:40:26.778Z,131.68
2022-10-19T05:41:01.450Z,116.22
2022-10-19T05:41:33.757Z,156.20
2022-10-19T05:42:08.417Z,141.75
2022-10-19T05:42:40.553Z,116.72
2022-10-19T05:43:12.676Z,142.88
2022-10-19T05:43:47.799Z,96.90
2022-10-19T05:44:21.739Z,116.95
2022-10-19T05:44:53.807Z,149.88
2022-10-19T05:45:28.490Z,91.35
2022-10-19T05:46:03.957Z,134.88
2022-10-19T05:46:39.450Z,134.52
2022-10-19T05:47:11.515Z,140.65
2022-10-19T05:47:43.580Z,136.05
2022-10-19T05:48:18.392Z,112.07
2022-10-19T05:48:54.768Z,131.05
2022-10-19T05:49:29.614Z,100.53
2022-10-19T05:50:01.741Z,117.88
2022-10-19T05:50:33.859Z,113.80
2022-10-19T05:51:10.943Z,98.75
2022-10-19T05:51:43.514Z,149.23
2022-10-19T05:52:17.800Z,147.43
2022-10-19T05:52:52.443Z,167.70
2022-10-19T05:53:24.650Z,115.22
2022-10-19T05:53:57.516Z,190.38
2022-10-19T05:54:32.369Z,148.32
2022-10-19T05:55:05.348Z,125.97
2022-10-19T05:55:37.527Z,132.00
2022-10-19T05:56:16.666Z,158.75
2022-10-19T05:56:49.029Z,114.03
2022-10-19T05:57:23.733Z,102.82
2022-10-19T05:57:55.814Z,125.03
2022-10-19T05:58:27.963Z,128.57
2022-10-19T05:59:05.578Z,135.18
2022-10-19T05:59:37.725Z,134.60
2022-10-19T06:00:11.854Z,124.78
2022-10-19T06:00:46.874Z,105.03
2022-10-19T06:01:20.186Z,132.23
2022-10-19T06:01:54.955Z,118.50
2022-10-19T06:02:27.127Z,183.45
2022-10-19T06:02:59.354Z,125.63
2022-10-19T06:03:34.206Z,129.65
2022-10-19T06:04:10.941Z,146.32
2022-10-19T06:04:45.714Z,132.05
2022-10-19T06:05:17.827Z,130.88
2022-10-19T06:05:50.388Z,87.88
2022-10-19T06:06:26.149Z,116.22
2022-10-19T06:06:58.205Z,134.00
2022-10-19T06:07:30.425Z,94.45
2022-10-19T06:08:02.502Z,112.18
2022-10-19T06:08:38.258Z,129.18
2022-10-19T06:09:10.767Z,158.77
2022-10-19T06:09:43.002Z,112.68
2022-10-19T06:10:17.830Z,133.10
2022-10-19T06:10:50.527Z,106.97
2022-10-19T06:11:27.675Z,107.18
2022-10-19T06:11:59.814Z,136.95
2022-10-19T06:12:34.544Z,90.45
2022-10-19T06:13:06.684Z,133.60
2022-10-19T06:13:39.595Z,138.93
2022-10-19T06:14:17.148Z,129.05
2022-10-19T06:14:51.354Z,131.77
2022-10-19T06:15:23.433Z,157.90
2022-10-19T06:15:58.135Z,117.10
2022-10-19T06:16:31.487Z,147.15
2022-10-19T06:17:06.800Z,118.28
2022-10-19T06:17:38.875Z,137.68
2022-10-19T06:18:13.223Z,113.53
2022-10-19T06:18:48.782Z,150.73
2022-10-19T06:19:23.525Z,155.55
2022-10-19T06:19:58.213Z,154.48
2022-10-19T06:20:30.326Z,91.40
2022-10-19T06:21:04.073Z,138.38
2022-10-19T06:21:41.824Z,117.00
2022-10-19T06:22:17.047Z,111.28
2022-10-19T06:22:51.708Z,97.78
2022-10-19T06:23:23.782Z,91.70
2022-10-19T06:23:57.944Z,137.45
2022-10-19T06:24:32.859Z,161.27
2022-10-19T06:25:05.754Z,120.78
2022-10-19T06:25:37.911Z,96.93
2022-10-19T06:26:15.333Z,109.80
2022-10-19T06:26:47.412Z,125.38
2022-10-19T06:27:22.120Z,144.05
2022-10-19T06:27:54.253Z,119.65
2022-10-19T06:28:26.420Z,128.45
2022-10-19T06:29:03.903Z,135.25
2022-10-19T06:29:36.528Z,111.03
2022-10-19T06:30:09.938Z,127.25
2022-10-19T06:30:44.695Z,128.60
2022-10-19T06:31:17.394Z,110.57
2022-10-19T06:31:49.493Z,112.20
2022-10-19T06:32:24.141Z,115.75
2022-10-19T06:32:56.318Z,139.15
2022-10-19T06:33:30.135Z,131.40
2022-10-19T06:34:05.317Z,116.18
2022-10-19T06:34:40.205Z,148.32
2022-10-19T06:35:12.318Z,107.80
2022-10-19T06:35:46.959Z,156.68
2022-10-19T06:36:21.191Z,131.00
2022-10-19T06:36:53.253Z,149.75
2022-10-19T06:37:27.925Z,121.47
2022-10-19T06:38:00.218Z,136.07
2022-10-19T06:38:32.451Z,146.65
2022-10-19T06:39:07.485Z,126.25
2022-10-19T06:39:39.745Z,113.38
2022-10-19T06:40:12.571Z,156.00
2022-10-19T06:40:49.129Z,157.30
2022-10-19T06:41:21.293Z,107.05
2022-10-19T06:41:56.010Z,151.80
2022-10-19T06:42:30.382Z,125.78
2022-10-19T06:43:02.727Z,114.60
2022-10-19T06:43:37.991Z,103.63
2022-10-19T06:44:10.122Z,169.13
2022-10-19T06:44:44.835Z,97.45
2022-10-19T06:45:17.037Z,111.20
2022-10-19T06:45:49.114Z,69.05
2022-10-19T06:46:26.148Z,111.40
2022-10-19T06:46:58.235Z,160.68
2022-10-19T06:47:33.380Z,128.10
2022-10-19T06:48:09.571Z,134.75
2022-10-19T06:48:41.715Z,124.03
2022-10-19T06:49:17.644Z,119.88
2022-10-19T06:49:52.282Z,138.80
2022-10-19T06:50:24.378Z,122.25
2022-10-19T06:50:59.795Z,123.93
2022-10-19T06:51:32.421Z,95.28
2022-10-19T06:52:07.811Z,106.28
2022-10-19T06:52:40.861Z,140.88
2022-10-19T06:53:15.799Z,132.05
2022-10-19T06:53:48.980Z,127.47
2022-10-19T06:54:25.776Z,111.40
2022-10-19T06:54:57.846Z,89.40
2022-10-19T06:55:32.509Z,107.07
2022-10-19T06:56:06.772Z,103.93
2022-10-19T06:56:41.510Z,134.38
2022-10-19T06:57:13.665Z,102.65
2022-10-19T06:57:45.749Z,100.75
2022-10-19T06:58:20.429Z,96.72
2022-10-19T06:58:53.202Z,105.75
2022-10-19T06:59:28.044Z,123.03
2022-10-19T07:00:00.135Z,111.20
2022-10-19T07:00:32.371Z,135.68
2022-10-19T07:01:09.226Z,128.75
2022-10-19T07:01:41.373Z,74.85
2022-10-19T07:02:13.694Z,151.40
2022-10-19T07:02:48.364Z,116.15
2022-10-19T07:03:20.430Z,104.78
2022-10-19T07:03:53.015Z,105.25
2022-10-19T07:04:27.770Z,116.00
2022-10-19T07:05:06.912Z,90.70
2022-10-19T07:05:41.872Z,108.03
2022-10-19T07:06:14.758Z,126.32
2022-10-19T07:06:49.424Z,171.43
2022-10-19T07:07:21.509Z,155.27
2022-10-19T07:07:53.603Z,189.45
2022-10-19T07:08:29.229Z,128.85
2022-10-19T07:09:02.738Z,94.05
2022-10-19T07:09:37.584Z,77.55
2022-10-19T07:10:10.168Z,112.60
2022-10-19T07:10:42.285Z,85.40
2022-10-19T07:11:19.498Z,75.88
2022-10-19T07:11:52.223Z,96.82
2022-10-19T07:12:24.415Z,82.90
2022-10-19T07:12:59.228Z,115.60
2022-10-19T07:13:31.666Z,77.43
2022-10-19T07:14:06.458Z,83.43
2022-10-19T07:14:39.800Z,92.70
2022-10-19T07:15:14.566Z,66.47
2022-10-19T07:15:47.150Z,67.05
2022-10-19T07:16:21.183Z,67.50
2022-10-19T07:16:56.354Z,98.72
2022-10-19T07:17:28.443Z,72.43
2022-10-19T07:18:00.532Z,69.07
2022-10-19T07:18:35.617Z,67.30
2022-10-19T07:19:07.711Z,88.00
2022-10-19T07:19:42.345Z,87.38
2022-10-19T07:20:17.135Z,66.43
2022-10-19T07:20:55.030Z,70.80
2022-10-19T07:21:29.675Z,55.47
2022-10-19T07:22:02.125Z,56.65
2022-10-19T07:22:34.289Z,80.63
2022-10-19T07:23:09.002Z,69.05
2022-10-19T07:23:43.043Z,59.63
2022-10-19T07:24:17.690Z,83.05
2022-10-19T07:24:49.846Z,63.20
2022-10-19T07:25:25.108Z,69.18
2022-10-19T07:26:01.805Z,47.83
2022-10-19T07:26:36.800Z,41.75